Hobbieville, Indiana
Current Conditions -  °F | °C
As of 7:53 PM on Friday 28 Nov 2014 (Local Time) from KBMG Reporting Station
Clear Clear  
Wind Chill: 26°   Ceiling: Unl
Heat Index: 34°   Visibility: 10mi
Dew Point: 25°   Wind: 10mph
Humidity: 70%   Direction: 170°S
Pressure: 30.06"   Gusts: NA
Location:  38.9483°N, 86.6278°W
Report Text: KBMG 290053Z 17009KT 10SM CLR 01/M04 A3006 RMK AO2 SLP190 T00111039
Loading
Personal Weather Stations






























Interactive Weather Map New forecast layout! Learn more

10-Day Weather Forecast

Advertisements
Track Severe Weather on mobile